Time;durP1;ratioP1;P1;durP2;ratioP2;P2;SDS_P1;SDS_P2;PMS_P1;PMS_P2;Temp;Humidity;BMP_temperature;BMP_pressure;BME280_temperature;BME280_humidity;BME280_pressure;Samples;Min_cycle;Max_cycle;Signal;HPM_P1;HPM_P2
2022/05/05 00:00:12;;;;;;;0.00;0.00;;;7.60;99.90;;;;;;5002264;28;20122;-67
2022/05/05 00:02:37;;;;;;;0.00;0.00;;;7.60;99.90;;;;;;5003627;28;20038;-68
2022/05/05 00:05:05;;;;;;;0.00;0.00;;;7.60;99.90;;;;;;5003287;28;20517;-68
2022/05/05 00:07:31;;;;;;;0.00;0.00;;;7.50;99.90;;;;;;5002989;28;20467;-68
2022/05/05 00:09:57;;;;;;;0.00;0.00;;;7.40;99.90;;;;;;5001795;28;20046;-69
2022/05/05 00:15:14;;;;;;;0.00;0.00;;;7.40;99.90;;;;;;4991722;28;20065;-66
2022/05/05 00:17:39;;;;;;;0.00;0.00;;;7.50;99.90;;;;;;5003500;28;20050;-70
2022/05/05 00:20:06;;;;;;;0.00;0.00;;;7.50;99.90;;;;;;5003156;28;20045;-68
2022/05/05 00:22:31;;;;;;;0.00;0.00;;;7.40;99.90;;;;;;5001626;28;20052;-68
2022/05/05 00:24:57;;;;;;;0.00;0.00;;;7.60;99.90;;;;;;5001362;28;20042;-68
2022/05/05 00:27:22;;;;;;;0.00;0.00;;;7.40;99.90;;;;;;5002643;28;20034;-68
2022/05/05 00:29:49;;;;;;;0.00;0.00;;;7.40;99.90;;;;;;5002864;28;20275;-69
2022/05/05 00:32:15;;;;;;;0.00;0.00;;;7.40;99.90;;;;;;5001766;28;20057;-69
2022/05/05 00:34:40;;;;;;;0.00;0.00;;;7.40;99.90;;;;;;5002934;28;20464;-67
2022/05/05 00:37:07;;;;;;;0.00;0.00;;;7.60;99.90;;;;;;5003363;28;20042;-67
2022/05/05 00:39:32;;;;;;;0.10;0.10;;;8.40;99.90;;;;;;5001277;28;20485;-68
2022/05/05 00:41:59;;;;;;;0.00;0.00;;;7.60;99.90;;;;;;5002170;28;20129;-68
2022/05/05 00:44:24;;;;;;;0.00;0.00;;;7.40;99.90;;;;;;5002405;28;20049;-68
2022/05/05 00:46:51;;;;;;;0.00;0.00;;;7.40;99.90;;;;;;5013493;28;20711;-69
2022/05/05 00:49:18;;;;;;;0.00;0.00;;;7.40;99.90;;;;;;5001985;28;20152;-68
2022/05/05 00:51:44;;;;;;;0.00;0.00;;;7.20;99.90;;;;;;5002291;28;20660;-68
2022/05/05 00:54:10;;;;;;;0.00;0.00;;;8.10;99.90;;;;;;5001411;28;20053;-68
2022/05/05 00:56:37;;;;;;;0.00;0.00;;;7.30;99.90;;;;;;5002623;28;20034;-68
2022/05/05 00:59:05;;;;;;;0.00;0.00;;;7.30;99.90;;;;;;5001628;28;20386;-67
2022/05/05 01:01:32;;;;;;;0.00;0.00;;;7.30;99.90;;;;;;5001906;28;20052;-68
2022/05/05 01:03:57;;;;;;;0.00;0.00;;;7.20;99.90;;;;;;5002168;28;20050;-68
2022/05/05 01:06:23;;;;;;;0.00;0.00;;;7.20;99.90;;;;;;5000881;28;20635;-68
2022/05/05 01:08:49;;;;;;;0.00;0.00;;;7.10;99.90;;;;;;5001396;28;20038;-68
2022/05/05 01:11:14;;;;;;;0.00;0.00;;;7.10;99.90;;;;;;5012447;23;20025;-68
2022/05/05 01:13:41;;;;;;;0.00;0.00;;;7.10;99.90;;;;;;5003389;28;20416;-68
2022/05/05 01:16:08;;;;;;;0.00;0.00;;;7.20;99.90;;;;;;5001925;28;20514;-68
2022/05/05 01:18:34;;;;;;;0.00;0.00;;;7.20;99.90;;;;;;5001489;28;20088;-68
2022/05/05 01:21:00;;;;;;;0.00;0.00;;;7.20;99.90;;;;;;5001872;28;20089;-68
2022/05/05 01:23:26;;;;;;;0.00;0.00;;;7.30;99.90;;;;;;5001074;28;20034;-68
2022/05/05 01:28:48;;;;;;;0.00;0.00;;;7.20;99.90;;;;;;5002375;28;20569;-69
2022/05/05 01:31:14;;;;;;;0.00;0.00;;;7.20;99.90;;;;;;5001369;28;20129;-69
2022/05/05 01:33:40;;;;;;;0.00;0.00;;;7.10;99.90;;;;;;5001585;28;20137;-68
2022/05/05 01:36:06;;;;;;;0.00;0.00;;;7.10;99.90;;;;;;5002296;28;20045;-68
2022/05/05 01:38:36;;;;;;;0.00;0.00;;;7.10;99.90;;;;;;5000450;28;20581;-68
2022/05/05 01:41:10;;;;;;;0.00;0.00;;;7.10;99.90;;;;;;5033796;28;20065;-69
2022/05/05 01:43:37;;;;;;;0.00;0.00;;;7.10;99.90;;;;;;5001798;28;20036;-68
2022/05/05 01:46:04;;;;;;;0.00;0.00;;;7.00;99.90;;;;;;4994579;28;20541;-69
2022/05/05 01:48:30;;;;;;;0.00;0.00;;;6.90;99.90;;;;;;4986304;28;20164;-70
2022/05/05 01:50:56;;;;;;;0.00;0.00;;;6.90;99.90;;;;;;4979820;28;20045;-69
2022/05/05 01:53:22;;;;;;;0.00;0.00;;;6.80;99.90;;;;;;4980839;28;20046;-68
2022/05/05 01:55:47;;;;;;;0.00;0.00;;;6.80;99.90;;;;;;4982018;28;20444;-69
2022/05/05 01:58:13;;;;;;;0.00;0.00;;;6.80;99.90;;;;;;4981514;28;20109;-70
2022/05/05 02:00:39;;;;;;;0.00;0.00;;;6.80;99.90;;;;;;4980434;28;20438;-69
2022/05/05 02:03:12;;;;;;;0.00;0.00;;;6.80;99.90;;;;;;4981218;28;20050;-68
2022/05/05 02:05:43;;;;;;;0.00;0.00;;;6.80;99.90;;;;;;4982222;28;20050;-69
2022/05/05 02:08:09;;;;;;;0.00;0.00;;;6.80;99.90;;;;;;4980057;28;20078;-69
2022/05/05 02:10:35;;;;;;;0.00;0.00;;;6.80;99.90;;;;;;4981625;28;20034;-69
2022/05/05 02:13:01;;;;;;;0.00;0.00;;;6.80;99.90;;;;;;4981502;28;20065;-68
2022/05/05 02:15:28;;;;;;;0.00;0.00;;;6.80;99.90;;;;;;4981248;28;20058;-69
2022/05/05 02:17:54;;;;;;;0.00;0.00;;;6.80;99.90;;;;;;4981210;28;20038;-69
2022/05/05 02:20:19;;;;;;;0.00;0.00;;;6.90;99.90;;;;;;4980510;28;20703;-69
2022/05/05 02:22:45;;;;;;;0.00;0.00;;;6.90;99.90;;;;;;4980772;28;20040;-70
2022/05/05 02:25:11;;;;;;;0.00;0.00;;;6.90;99.90;;;;;;4979868;28;20038;-67
2022/05/05 02:27:47;;;;;;;0.00;0.00;;;7.40;99.90;;;;;;4980844;28;20096;-67
2022/05/05 02:30:13;;;;;;;0.00;0.00;;;6.90;99.90;;;;;;4981030;28;20042;-68
2022/05/05 02:32:39;;;;;;;0.00;0.00;;;6.90;99.90;;;;;;4981538;28;20141;-69
2022/05/05 02:35:05;;;;;;;0.00;0.00;;;6.80;99.90;;;;;;4980495;28;20623;-69
2022/05/05 02:40:15;;;;;;;0.00;0.00;;;6.80;99.90;;;;;;4981136;28;20065;-68
2022/05/05 02:42:41;;;;;;;0.00;0.00;;;6.70;99.90;;;;;;4978952;28;20042;-68
2022/05/05 02:45:07;;;;;;;0.00;0.00;;;6.60;99.90;;;;;;4983672;28;20037;-69
2022/05/05 02:47:32;;;;;;;0.00;0.00;;;6.60;99.90;;;;;;4989310;28;20042;-68
2022/05/05 02:49:58;;;;;;;0.00;0.00;;;6.50;99.90;;;;;;4980103;28;20042;-69
2022/05/05 02:52:23;;;;;;;0.00;0.00;;;6.50;99.90;;;;;;4980788;28;20042;-69
2022/05/05 02:54:52;;;;;;;0.00;0.00;;;6.60;99.90;;;;;;4980447;28;20107;-69
2022/05/05 02:57:20;;;;;;;0.00;0.00;;;6.50;99.90;;;;;;4980720;28;20531;-69
2022/05/05 02:59:53;;;;;;;0.00;0.00;;;6.50;99.90;;;;;;4979006;28;20065;-68
2022/05/05 03:02:20;;;;;;;0.00;0.00;;;6.30;99.90;;;;;;4986086;28;20085;-69
2022/05/05 03:04:46;;;;;;;0.00;0.00;;;6.30;99.90;;;;;;4987449;28;20841;-69
2022/05/05 03:07:12;;;;;;;0.00;0.00;;;6.40;99.90;;;;;;4986400;28;20096;-68
2022/05/05 03:09:41;;;;;;;0.00;0.00;;;6.40;99.90;;;;;;4986861;28;20060;-68
2022/05/05 03:12:08;;;;;;;0.00;0.00;;;6.30;99.90;;;;;;4987585;28;20046;-68
2022/05/05 03:14:34;;;;;;;0.00;0.00;;;6.30;99.90;;;;;;4986723;28;20137;-70
2022/05/05 03:17:00;;;;;;;0.00;0.00;;;6.20;99.90;;;;;;4987485;28;20121;-69
2022/05/05 03:19:26;;;;;;;0.00;0.00;;;6.20;99.90;;;;;;4986684;28;20451;-69
2022/05/05 03:21:55;;;;;;;0.03;0.03;;;6.20;99.90;;;;;;4986793;28;20042;-69
2022/05/05 03:24:21;;;;;;;0.00;0.00;;;6.20;99.90;;;;;;4985711;28;20555;-69
2022/05/05 03:26:46;;;;;;;0.00;0.00;;;6.20;99.90;;;;;;4987256;28;20098;-70
2022/05/05 03:29:12;;;;;;;0.00;0.00;;;6.20;99.90;;;;;;4986917;28;20299;-69
2022/05/05 03:31:38;;;;;;;0.00;0.00;;;6.20;99.90;;;;;;4986826;28;20046;-69
2022/05/05 03:34:05;;;;;;;0.00;0.00;;;6.20;99.90;;;;;;4987299;28;20794;-68
2022/05/05 03:36:30;;;;;;;0.00;0.00;;;6.30;99.90;;;;;;4986771;28;20050;-69
2022/05/05 03:38:56;;;;;;;0.00;0.00;;;6.00;99.90;;;;;;4986214;28;20049;-69
2022/05/05 03:41:22;;;;;;;0.00;0.00;;;6.00;99.90;;;;;;4985808;28;20050;-69
2022/05/05 03:43:47;;;;;;;0.00;0.00;;;6.00;99.90;;;;;;4987025;28;20117;-69
2022/05/05 03:46:13;;;;;;;0.00;0.00;;;6.00;99.90;;;;;;4994535;28;20085;-68
2022/05/05 03:48:39;;;;;;;0.00;0.00;;;6.00;99.90;;;;;;4990666;28;20515;-69
2022/05/05 03:51:05;;;;;;;0.00;0.00;;;5.90;99.90;;;;;;4986693;28;20129;-69
2022/05/05 03:53:31;;;;;;;0.05;0.05;;;6.00;99.90;;;;;;4984673;28;20053;-68
2022/05/05 03:55:57;;;;;;;0.00;0.00;;;6.00;99.90;;;;;;4986802;28;20121;-69
2022/05/05 03:58:22;;;;;;;0.00;0.00;;;6.10;99.90;;;;;;4985396;28;20049;-69
2022/05/05 04:00:48;;;;;;;0.00;0.00;;;6.10;99.90;;;;;;4986612;28;20185;-69
2022/05/05 04:03:32;;;;;;;0.00;0.00;;;6.10;99.90;;;;;;4985075;28;20046;-69
2022/05/05 04:06:17;;;;;;;0.00;0.00;;;6.30;99.90;;;;;;4986033;28;20050;-69
2022/05/05 04:08:42;;;;;;;0.00;0.00;;;6.20;99.90;;;;;;4985080;28;20767;-69
2022/05/05 04:11:08;;;;;;;0.00;0.00;;;6.60;99.90;;;;;;4986640;28;20034;-69
2022/05/05 04:13:35;;;;;;;0.05;0.05;;;6.30;99.90;;;;;;4983627;28;20054;-68
2022/05/05 04:16:01;;;;;;;0.00;0.00;;;6.30;99.90;;;;;;4983801;28;20425;-69
2022/05/05 04:18:27;;;;;;;0.00;0.00;;;6.30;99.90;;;;;;4983672;28;20050;-69
2022/05/05 04:20:53;;;;;;;0.00;0.00;;;6.30;99.90;;;;;;4982492;28;20093;-69
2022/05/05 04:23:19;;;;;;;0.00;0.00;;;6.30;99.90;;;;;;4982549;28;20038;-69
2022/05/05 04:25:46;;;;;;;0.00;0.00;;;6.40;99.90;;;;;;4983340;28;20043;-69
2022/05/05 04:28:12;;;;;;;0.00;0.00;;;6.40;99.90;;;;;;4983052;28;20050;-68
2022/05/05 04:30:39;;;;;;;0.00;0.00;;;6.50;99.90;;;;;;4983566;28;20060;-68
2022/05/05 04:33:06;;;;;;;0.00;0.00;;;6.50;99.90;;;;;;4983880;28;20125;-68
2022/05/05 04:35:31;;;;;;;0.00;0.00;;;6.50;99.90;;;;;;4983228;28;20066;-68
2022/05/05 04:37:58;;;;;;;0.00;0.00;;;6.60;99.90;;;;;;4982179;28;20049;-68
2022/05/05 04:40:23;;;;;;;0.00;0.00;;;6.70;99.90;;;;;;4983063;28;20170;-66
2022/05/05 04:42:49;;;;;;;0.00;0.00;;;6.70;99.90;;;;;;4983211;28;20583;-68
2022/05/05 04:45:15;;;;;;;0.00;0.00;;;6.80;99.90;;;;;;4985093;28;20125;-68
2022/05/05 04:47:40;;;;;;;0.70;0.17;;;6.80;99.90;;;;;;4991032;28;20121;-67
2022/05/05 04:50:07;;;;;;;0.00;0.00;;;6.90;99.90;;;;;;4983158;28;20543;-68
2022/05/05 04:52:32;;;;;;;0.00;0.00;;;6.90;99.90;;;;;;4980707;28;20046;-69
2022/05/05 04:54:59;;;;;;;0.00;0.00;;;7.00;99.90;;;;;;4982480;28;20053;-69
2022/05/05 04:57:25;;;;;;;0.10;0.10;;;7.00;99.90;;;;;;4982802;28;20053;-68
2022/05/05 04:59:51;;;;;;;0.00;0.00;;;7.90;99.90;;;;;;4982751;28;20413;-69
2022/05/05 05:02:17;;;;;;;0.00;0.00;;;7.00;99.90;;;;;;4982424;28;20104;-68
2022/05/05 05:04:42;;;;;;;0.10;0.10;;;6.90;99.90;;;;;;4982010;28;20069;-69
2022/05/05 05:07:08;;;;;;;0.00;0.00;;;8.10;99.90;;;;;;4982320;28;20130;-68
2022/05/05 05:09:34;;;;;;;0.00;0.00;;;7.00;99.90;;;;;;4981433;28;20049;-69
2022/05/05 05:12:00;;;;;;;0.00;0.00;;;7.10;99.90;;;;;;4981949;28;20089;-68
2022/05/05 05:14:26;;;;;;;0.00;0.00;;;7.10;99.90;;;;;;4982397;28;20093;-69
2022/05/05 05:16:52;;;;;;;0.85;0.20;;;7.10;99.90;;;;;;4982801;28;20076;-69
2022/05/05 05:19:18;;;;;;;0.10;0.10;;;7.10;99.90;;;;;;4982208;28;20050;-69
2022/05/05 05:21:43;;;;;;;0.00;0.00;;;7.30;99.90;;;;;;4981459;28;20046;-68
2022/05/05 05:24:09;;;;;;;1.10;0.20;;;7.10;99.90;;;;;;4981242;28;20042;-69
2022/05/05 05:26:35;;;;;;;0.00;0.00;;;7.10;99.90;;;;;;4982132;28;20038;-69
2022/05/05 05:29:01;;;;;;;0.10;0.10;;;7.10;99.90;;;;;;4982327;28;20056;-69
2022/05/05 05:31:26;;;;;;;0.00;0.00;;;7.10;99.90;;;;;;4981464;28;20038;-68
2022/05/05 05:33:52;;;;;;;0.00;0.00;;;7.10;99.90;;;;;;4982501;28;20050;-69
2022/05/05 05:36:18;;;;;;;0.00;0.00;;;7.30;99.90;;;;;;4982032;28;20113;-68
2022/05/05 05:38:44;;;;;;;0.00;0.00;;;7.30;99.90;;;;;;4980586;28;20178;-69
2022/05/05 05:41:10;;;;;;;0.00;0.00;;;7.30;99.90;;;;;;4981612;28;20086;-68
2022/05/05 05:43:36;;;;;;;0.17;0.05;;;7.40;99.90;;;;;;4982122;28;20049;-69
2022/05/05 05:46:01;;;;;;;0.00;0.00;;;7.60;99.90;;;;;;4988134;28;20599;-68
2022/05/05 05:48:27;;;;;;;0.20;0.10;;;7.70;99.90;;;;;;4985678;28;20034;-68
2022/05/05 05:50:53;;;;;;;0.10;0.10;;;7.60;99.90;;;;;;4980484;28;20413;-69
2022/05/05 05:53:18;;;;;;;0.20;0.15;;;7.60;99.90;;;;;;4980822;28;20083;-69
2022/05/05 05:55:44;;;;;;;0.00;0.00;;;7.70;99.90;;;;;;4980432;28;20525;-69
2022/05/05 05:58:10;;;;;;;0.00;0.00;;;7.60;99.90;;;;;;4980967;28;20053;-61
2022/05/05 06:00:36;;;;;;;0.00;0.00;;;7.90;99.90;;;;;;4982012;28;20149;-72
2022/05/05 06:05:46;;;;;;;0.00;0.00;;;8.20;99.90;;;;;;4981913;28;20096;-69
2022/05/05 06:08:12;;;;;;;0.00;0.00;;;8.10;99.90;;;;;;4980766;28;20050;-68
2022/05/05 06:10:37;;;;;;;0.00;0.00;;;8.10;99.90;;;;;;4982124;28;20138;-69
2022/05/05 06:13:03;;;;;;;0.00;0.00;;;8.20;99.90;;;;;;4995379;28;20058;-69
2022/05/05 06:15:30;;;;;;;0.00;0.00;;;8.30;99.90;;;;;;4981235;28;20783;-69
2022/05/05 06:17:56;;;;;;;0.00;0.00;;;8.20;99.90;;;;;;4981678;28;20047;-68
2022/05/05 06:20:22;;;;;;;0.00;0.00;;;8.40;99.90;;;;;;4980381;28;20050;-69
2022/05/05 06:22:50;;;;;;;0.00;0.00;;;8.30;99.90;;;;;;4980585;28;20042;-69
2022/05/05 06:25:18;;;;;;;0.00;0.00;;;8.40;99.90;;;;;;4980934;28;20039;-69
2022/05/05 06:27:44;;;;;;;0.00;0.00;;;8.50;99.90;;;;;;4981284;28;20042;-68
2022/05/05 06:30:11;;;;;;;0.00;0.00;;;8.50;99.90;;;;;;4980408;28;20057;-68
2022/05/05 06:32:37;;;;;;;0.00;0.00;;;8.50;99.90;;;;;;4981498;28;20084;-69
2022/05/05 06:35:03;;;;;;;0.00;0.00;;;8.50;99.90;;;;;;4980177;28;20641;-69
2022/05/05 06:37:29;;;;;;;0.00;0.00;;;8.60;99.90;;;;;;4979194;28;20046;-69
2022/05/05 06:39:54;;;;;;;0.00;0.00;;;8.80;99.90;;;;;;4979418;28;20378;-68
2022/05/05 06:42:20;;;;;;;0.00;0.00;;;8.60;99.90;;;;;;4980588;28;20037;-69
2022/05/05 06:44:46;;;;;;;0.00;0.00;;;8.60;99.90;;;;;;4996511;28;20109;-68
2022/05/05 06:47:11;;;;;;;0.00;0.00;;;8.80;99.90;;;;;;4988784;28;20438;-67
2022/05/05 06:49:37;;;;;;;0.00;0.00;;;8.80;99.90;;;;;;5001014;28;20042;-68
2022/05/05 06:52:03;;;;;;;0.00;0.00;;;8.90;99.90;;;;;;4999968;28;20046;-69
2022/05/05 06:54:29;;;;;;;0.00;0.00;;;9.00;99.90;;;;;;4999018;28;20488;-69
2022/05/05 06:56:55;;;;;;;0.00;0.00;;;9.00;99.90;;;;;;4999860;28;20123;-69
2022/05/05 06:59:21;;;;;;;0.00;0.00;;;9.10;99.90;;;;;;4999932;28;20050;-69
2022/05/05 07:01:53;;;;;;;0.20;0.00;;;9.20;99.90;;;;;;5000271;28;20125;-69
2022/05/05 07:07:11;;;;;;;0.00;0.00;;;9.40;99.90;;;;;;4999838;28;20416;-68
2022/05/05 07:12:22;;;;;;;0.10;0.10;;;9.60;99.90;;;;;;4999834;28;20042;-69
2022/05/05 07:14:47;;;;;;;0.00;0.00;;;9.60;99.90;;;;;;5000308;28;20046;-68
2022/05/05 07:17:14;;;;;;;0.00;0.00;;;9.60;99.90;;;;;;4999630;28;20042;-68
2022/05/05 07:19:40;;;;;;;0.00;0.00;;;9.60;99.90;;;;;;5000410;28;20045;-68
2022/05/05 07:22:07;;;;;;;0.00;0.00;;;9.60;99.90;;;;;;4999530;28;20081;-62
2022/05/05 07:24:33;;;;;;;0.00;0.00;;;9.70;99.90;;;;;;4999056;28;20068;-65
2022/05/05 07:26:59;;;;;;;0.00;0.00;;;9.80;99.90;;;;;;4997000;28;20100;-67
2022/05/05 07:29:25;;;;;;;0.00;0.00;;;9.90;99.90;;;;;;4999083;28;20492;-67
2022/05/05 07:31:51;;;;;;;0.00;0.00;;;9.90;99.90;;;;;;4999521;28;20041;-67
2022/05/05 07:34:18;;;;;;;0.00;0.00;;;10.00;99.90;;;;;;4997376;28;20042;-67
2022/05/05 07:36:44;;;;;;;0.00;0.00;;;10.00;99.90;;;;;;4997716;28;20072;-66
2022/05/05 07:39:10;;;;;;;0.00;0.00;;;10.30;99.90;;;;;;4999212;28;20081;-66
2022/05/05 07:41:36;;;;;;;0.00;0.00;;;10.30;99.90;;;;;;4998728;28;20520;-67
2022/05/05 07:44:04;;;;;;;0.00;0.00;;;10.40;99.90;;;;;;4999775;28;20125;-66
2022/05/05 07:46:29;;;;;;;0.00;0.00;;;10.30;99.90;;;;;;4992841;28;20080;-68
2022/05/05 07:48:55;;;;;;;0.00;0.00;;;10.50;99.90;;;;;;4983432;28;20486;-67
2022/05/05 07:51:21;;;;;;;0.10;0.10;;;10.50;99.90;;;;;;4990568;28;20492;-68
2022/05/05 07:54:34;;;;;;;0.00;0.00;;;10.60;99.90;;;;;;5002226;28;20092;-69
2022/05/05 07:56:32;;;;;;;0.00;0.00;;;10.60;99.90;;;;;;5002133;28;20125;-69
2022/05/05 07:58:58;;;;;;;0.00;0.00;;;10.70;99.90;;;;;;5002071;28;20435;-69
2022/05/05 08:01:24;;;;;;;0.00;0.00;;;10.80;99.90;;;;;;5001069;28;20089;-68
2022/05/05 08:03:50;;;;;;;0.00;0.00;;;10.90;99.90;;;;;;5003389;28;20081;-67
2022/05/05 08:06:15;;;;;;;0.00;0.00;;;11.10;99.90;;;;;;5001527;28;20153;-70
2022/05/05 08:08:41;;;;;;;0.20;0.08;;;11.00;99.90;;;;;;5002861;28;20100;-69
2022/05/05 08:11:06;;;;;;;0.00;0.00;;;11.30;99.90;;;;;;5002301;28;20042;-69
2022/05/05 08:13:33;;;;;;;0.00;0.00;;;11.50;99.90;;;;;;5001380;28;20077;-69
2022/05/05 08:15:58;;;;;;;0.00;0.00;;;11.40;99.90;;;;;;5002689;28;20452;-70
2022/05/05 08:18:24;;;;;;;0.00;0.00;;;11.70;99.90;;;;;;5003088;28;20103;-70
2022/05/05 08:20:51;;;;;;;0.00;0.00;;;11.60;99.90;;;;;;5002917;28;20042;-69
2022/05/05 08:23:17;;;;;;;0.00;0.00;;;11.70;99.90;;;;;;5002483;28;20101;-69
2022/05/05 08:28:30;;;;;;;0.00;0.00;;;11.80;99.90;;;;;;5002604;28;20133;-69
2022/05/05 08:30:56;;;;;;;0.00;0.00;;;11.80;99.90;;;;;;5002408;28;20041;-69
2022/05/05 08:33:27;;;;;;;0.08;0.08;;;11.90;99.90;;;;;;5002444;28;20050;-69
2022/05/05 08:35:53;;;;;;;0.00;0.00;;;12.00;99.90;;;;;;5003069;28;20099;-69
2022/05/05 08:38:18;;;;;;;0.00;0.00;;;12.20;99.90;;;;;;5001064;28;20041;-69
2022/05/05 08:40:44;;;;;;;0.10;0.10;;;12.40;99.90;;;;;;5002473;28;20052;-69
2022/05/05 08:43:10;;;;;;;0.00;0.00;;;12.30;99.90;;;;;;5002626;28;20034;-69
2022/05/05 08:45:38;;;;;;;0.00;0.00;;;12.20;99.90;;;;;;4997096;28;20046;-69
2022/05/05 08:48:08;;;;;;;0.00;0.00;;;12.30;99.90;;;;;;4990490;28;20047;-71
2022/05/05 08:50:47;;;;;;;0.00;0.00;;;12.40;99.90;;;;;;4981582;28;20121;-72
2022/05/05 08:53:15;;;;;;;0.15;0.00;;;12.50;99.90;;;;;;4981722;28;20123;-73
2022/05/05 08:55:43;;;;;;;0.00;0.00;;;12.80;99.90;;;;;;4983260;28;20042;-73
2022/05/05 08:58:09;;;;;;;0.00;0.00;;;12.70;99.90;;;;;;4983506;28;20046;-68
2022/05/05 09:00:35;;;;;;;0.00;0.00;;;12.90;99.90;;;;;;4982843;28;20116;-69
2022/05/05 09:03:04;;;;;;;0.00;0.00;;;12.70;99.90;;;;;;4981911;28;20046;-69
2022/05/05 09:05:45;;;;;;;0.30;0.10;;;12.80;99.90;;;;;;4996680;28;20482;-67
2022/05/05 09:08:24;;;;;;;0.00;0.00;;;13.00;99.90;;;;;;4999287;28;20142;-69
2022/05/05 09:10:51;;;;;;;0.00;0.00;;;13.30;99.90;;;;;;5001996;28;20045;-68
2022/05/05 09:13:31;;;;;;;0.00;0.00;;;13.50;99.90;;;;;;5001535;28;20416;-68
2022/05/05 09:15:57;;;;;;;0.00;0.00;;;13.60;99.90;;;;;;5000865;28;20073;-68
2022/05/05 09:18:31;;;;;;;0.00;0.00;;;13.70;99.90;;;;;;5001433;28;20093;-69
2022/05/05 09:21:00;;;;;;;0.10;0.10;;;13.60;99.90;;;;;;5001604;28;20042;-70
2022/05/05 09:26:27;;;;;;;0.00;0.00;;;13.90;99.90;;;;;;5000808;28;20136;-69
2022/05/05 09:28:52;;;;;;;0.25;0.10;;;13.90;99.90;;;;;;4999468;28;20444;-69
2022/05/05 09:31:19;;;;;;;0.00;0.00;;;13.90;99.90;;;;;;5001445;28;20075;-69
2022/05/05 09:33:44;;;;;;;0.00;0.00;;;14.00;99.90;;;;;;5001774;28;20050;-69
2022/05/05 09:36:25;;;;;;;0.00;0.00;;;14.20;99.90;;;;;;4999925;28;20041;-64
2022/05/05 09:38:56;;;;;;;0.00;0.00;;;14.30;99.90;;;;;;5000019;28;20049;-68
2022/05/05 09:41:30;;;;;;;0.00;0.00;;;14.40;99.90;;;;;;5000536;28;20046;-67
2022/05/05 09:44:26;;;;;;;0.00;0.00;;;14.30;99.90;;;;;;5000583;28;20136;-68
2022/05/05 09:47:14;;;;;;;0.00;0.00;;;14.70;99.90;;;;;;4993576;28;20124;-69
2022/05/05 09:49:59;;;;;;;0.00;0.00;;;14.80;99.90;;;;;;4999115;28;20054;-68
2022/05/05 09:58:45;;;;;;;0.00;0.00;;;15.20;99.90;;;;;;5000910;28;20107;-69
2022/05/05 10:01:21;;;;;;;0.00;0.00;;;15.50;99.90;;;;;;4971124;28;20137;-68
2022/05/05 10:04:09;;;;;;;0.00;0.00;;;15.80;99.90;;;;;;4981038;28;20046;-70
2022/05/05 10:06:42;;;;;;;0.08;0.08;;;16.00;99.90;;;;;;4978599;28;20058;-69
2022/05/05 10:09:12;;;;;;;0.00;0.00;;;16.10;99.90;;;;;;4981218;28;20038;-69
2022/05/05 10:11:38;;;;;;;0.00;0.00;;;16.20;99.90;;;;;;4980311;28;20104;-68
2022/05/05 10:14:06;;;;;;;0.00;0.00;;;16.10;99.90;;;;;;4979787;28;20061;-69
2022/05/05 10:16:31;;;;;;;0.00;0.00;;;16.10;99.90;;;;;;4985426;28;20566;-68
2022/05/05 10:18:58;;;;;;;0.10;0.10;;;16.10;99.90;;;;;;4980953;28;20126;-68
2022/05/05 10:21:43;;;;;;;0.00;0.00;;;16.10;99.90;;;;;;4979608;28;20046;-68
2022/05/05 10:24:27;;;;;;;0.00;0.00;;;16.00;99.90;;;;;;4982859;28;20401;-63
2022/05/05 10:26:58;;;;;;;0.00;0.00;;;16.10;99.90;;;;;;4999176;28;20042;-69
2022/05/05 10:29:41;;;;;;;0.00;0.00;;;16.20;99.90;;;;;;4999456;28;20540;-68
2022/05/05 10:32:12;;;;;;;0.00;0.00;;;16.30;99.90;;;;;;4999995;28;20073;-69
2022/05/05 10:34:45;;;;;;;0.08;0.08;;;16.60;99.90;;;;;;4999858;28;20120;-68
2022/05/05 10:37:13;;;;;;;0.00;0.00;;;16.70;99.90;;;;;;4997932;28;20042;-65
2022/05/05 10:40:01;;;;;;;0.00;0.00;;;16.80;99.90;;;;;;4998651;28;20049;-71
2022/05/05 10:42:31;;;;;;;0.00;0.00;;;17.00;99.90;;;;;;4999963;28;20048;-70
2022/05/05 10:45:09;;;;;;;0.00;0.00;;;17.10;99.90;;;;;;4998463;28;20108;-70
2022/05/05 10:48:07;;;;;;;0.00;0.00;;;17.30;99.90;;;;;;4988583;28;20050;-69
2022/05/05 10:50:39;;;;;;;0.03;0.03;;;17.60;99.90;;;;;;4979951;28;20057;-70
2022/05/05 10:53:09;;;;;;;0.00;0.00;;;17.80;99.90;;;;;;4979622;28;20052;-69
2022/05/05 10:55:44;;;;;;;0.00;0.00;;;17.70;99.90;;;;;;4980109;28;20038;-70
2022/05/05 10:58:10;;;;;;;0.00;0.00;;;17.70;99.90;;;;;;4979186;28;20061;-68
2022/05/05 11:00:42;;;;;;;0.10;0.10;;;17.80;99.90;;;;;;4997722;28;20413;-70
2022/05/05 11:03:07;;;;;;;0.00;0.00;;;18.00;99.90;;;;;;4999495;28;20084;-71
2022/05/05 11:05:36;;;;;;;0.00;0.00;;;18.20;99.90;;;;;;4997635;28;20082;-70
2022/05/05 11:08:08;;;;;;;0.00;0.00;;;18.50;99.90;;;;;;4998994;28;20382;-70
2022/05/05 11:14:00;;;;;;;0.00;0.00;;;18.60;99.90;;;;;;4978383;28;20045;-68
2022/05/05 11:22:20;;;;;;;0.00;0.00;;;18.80;99.90;;;;;;5000168;28;20141;-69
2022/05/05 11:24:51;;;;;;;0.00;0.00;;;18.70;99.90;;;;;;5004176;28;20046;-69
2022/05/05 11:27:22;;;;;;;0.00;0.00;;;18.80;99.90;;;;;;5003055;28;20054;-68
2022/05/05 11:29:52;;;;;;;0.00;0.00;;;18.80;99.90;;;;;;5003659;28;20400;-68
2022/05/05 11:32:19;;;;;;;0.00;0.00;;;19.00;99.90;;;;;;5000788;28;20692;-69
2022/05/05 11:34:48;;;;;;;0.00;0.00;;;19.10;99.90;;;;;;5003077;28;20046;-68
2022/05/05 11:37:14;;;;;;;0.00;0.00;;;19.10;99.90;;;;;;5002787;28;20058;-68
2022/05/05 11:39:40;;;;;;;0.00;0.00;;;19.20;99.90;;;;;;5003375;28;20111;-64
2022/05/05 11:42:09;;;;;;;0.00;0.00;;;19.20;99.90;;;;;;5001054;28;20479;-70
2022/05/05 11:44:36;;;;;;;0.00;0.00;;;19.20;99.90;;;;;;5003062;28;20405;-66
2022/05/05 11:47:32;;;;;;;0.00;0.00;;;19.20;99.90;;;;;;4994550;28;20069;-69
2022/05/05 11:49:59;;;;;;;0.00;0.00;;;19.30;99.90;;;;;;4990216;28;20077;-68
2022/05/05 11:52:26;;;;;;;0.20;0.20;;;19.50;99.90;;;;;;5002393;28;20061;-68
2022/05/05 11:54:54;;;;;;;0.00;0.00;;;19.60;99.90;;;;;;5002799;28;20041;-68
2022/05/05 11:57:39;;;;;;;0.00;0.00;;;19.70;99.90;;;;;;5002421;28;20049;-67
2022/05/05 12:02:50;;;;;;;0.00;0.00;;;19.70;99.90;;;;;;5003108;28;19991;-68
2022/05/05 12:05:17;;;;;;;0.00;0.00;;;19.80;99.90;;;;;;5001174;28;20488;-67
2022/05/05 12:07:46;;;;;;;0.00;0.00;;;20.10;99.90;;;;;;5002187;28;20052;-68
2022/05/05 12:10:14;;;;;;;0.00;0.00;;;20.10;99.90;;;;;;5001257;28;20077;-67
2022/05/05 12:12:45;;;;;;;0.38;0.00;;;20.10;99.90;;;;;;4984757;28;20050;-67
2022/05/05 12:15:12;;;;;;;0.00;0.00;;;20.20;99.90;;;;;;5001342;28;20050;-65
2022/05/05 12:17:50;;;;;;;0.00;0.00;;;20.30;99.90;;;;;;5001946;28;20042;-69
2022/05/05 12:20:18;;;;;;;0.00;0.00;;;20.50;99.90;;;;;;5001860;28;20132;-67
2022/05/05 12:22:55;;;;;;;0.00;0.00;;;20.10;99.90;;;;;;4994166;28;20134;-67
2022/05/05 12:25:23;;;;;;;0.00;0.00;;;20.40;99.90;;;;;;4982628;28;20064;-68
2022/05/05 12:28:01;;;;;;;0.00;0.00;;;20.50;99.90;;;;;;4982646;28;20134;-67
2022/05/05 12:30:41;;;;;;;0.00;0.00;;;20.40;99.90;;;;;;4980603;28;20050;-68
2022/05/05 12:33:08;;;;;;;0.00;0.00;;;20.30;99.90;;;;;;4982718;28;20478;-67
2022/05/05 12:35:35;;;;;;;0.13;0.00;;;20.40;99.90;;;;;;4980884;28;20050;-68
2022/05/05 12:38:03;;;;;;;0.00;0.00;;;20.30;99.90;;;;;;4981695;28;20156;-68
2022/05/05 12:40:29;;;;;;;0.00;0.00;;;20.30;99.90;;;;;;4982459;28;20054;-67
2022/05/05 12:43:05;;;;;;;0.20;0.10;;;20.30;99.90;;;;;;4981457;28;20077;-69
2022/05/05 12:45:32;;;;;;;0.00;0.00;;;20.30;99.90;;;;;;4983604;28;20161;-68
2022/05/05 12:48:01;;;;;;;0.00;0.00;;;20.40;99.90;;;;;;4990981;28;20045;-68
2022/05/05 12:50:37;;;;;;;0.00;0.00;;;20.60;99.90;;;;;;4982401;28;20425;-68
2022/05/05 13:01:42;;;;;;;0.00;0.00;;;21.20;99.90;;;;;;4980595;28;20057;-68
2022/05/05 13:04:10;;;;;;;0.00;0.00;;;21.40;99.90;;;;;;4994331;28;20425;-68
2022/05/05 13:06:38;;;;;;;0.00;0.00;;;21.40;99.90;;;;;;5001999;28;20156;-69
2022/05/05 13:09:05;;;;;;;0.00;0.00;;;21.20;99.90;;;;;;5001033;28;20108;-68
2022/05/05 13:11:32;;;;;;;0.00;0.00;;;21.20;99.90;;;;;;4999581;28;20614;-69
2022/05/05 13:13:58;;;;;;;0.15;0.15;;;21.20;99.90;;;;;;4987941;28;20050;-68
2022/05/05 13:16:27;;;;;;;0.00;0.00;;;21.10;99.90;;;;;;4986568;28;20112;-66
2022/05/05 13:18:53;;;;;;;0.00;0.00;;;20.70;99.90;;;;;;4987731;28;20746;-67
2022/05/05 13:21:18;;;;;;;0.00;0.00;;;20.70;99.90;;;;;;4987923;28;20038;-66
2022/05/05 13:23:44;;;;;;;0.00;0.00;;;20.60;99.90;;;;;;4988325;28;20167;-67
2022/05/05 13:26:11;;;;;;;0.00;0.00;;;20.50;99.90;;;;;;4987351;28;20050;-62
2022/05/05 13:28:37;;;;;;;0.00;0.00;;;20.40;99.90;;;;;;4987483;28;20046;-67
2022/05/05 13:31:03;;;;;;;0.00;0.00;;;20.40;99.90;;;;;;4987521;28;20065;-66
2022/05/05 13:33:28;;;;;;;0.00;0.00;;;20.40;99.90;;;;;;4989289;28;20042;-66
2022/05/05 13:35:54;;;;;;;0.10;0.10;;;20.50;99.90;;;;;;4991709;28;20504;-66
2022/05/05 13:38:20;;;;;;;0.00;0.00;;;20.30;99.90;;;;;;4990053;28;20038;-67
2022/05/05 13:40:45;;;;;;;0.00;0.00;;;20.40;99.90;;;;;;4990111;28;20042;-67
2022/05/05 13:43:11;;;;;;;0.00;0.00;;;20.40;99.90;;;;;;4988445;28;20095;-66
2022/05/05 13:45:37;;;;;;;0.10;0.10;;;20.40;99.90;;;;;;4985843;28;20053;-67